Terminal Aerodrome Forecast
Issued by NWS

Home | Current Version | Previous Version | Text Only | Print | Product List | Glossary On
Versions: 1 2 3 4 5 6 7 8 9 10 11 12 13 14 15
000
FTUS46 KLOX 040539
TAFVNY
TAF
KVNY 040539Z 0406/0506 VRB03KT P6SM BKN200
     FM041200 VRB03KT 5SM BR BKN008 BKN150
     FM041700 VRB03KT P6SM BKN150
     FM042000 14008KT P6SM BKN150
     FM050400 VRB03KT P6SM OVC025=

USA.gov is the U.S. government's official web portal to all federal, state and local government web resources and services.